KMHR/MHR METAR and TAF weather

Enter ICAO airport designator
Station Type Date Time Source
KMHR METAR 2019/08/26 01:55 UTC NOAA

KMHR 260155Z 24010KT 10SM SKC 36/12 A2985


Station Type Date Time Source
KMHR Decoded METAR 2019/08/26 01:55 UTC NOAA

Station name not available
Aug 25, 2019 - 09:55 PM EDT / 2019.08.26 0155 UTC
Wind: from the WSW (240 degrees) at 12 MPH (10 KT):0
Visibility: 10 mile(s):0
Sky conditions: clear
Temperature: 96 F (36 C)
Dew Point: 53 F (12 C)
Relative Humidity: 23%
Pressure (altimeter): 29.85 in. Hg (1010 hPa)
ob: KMHR 260155Z 24010KT 10SM SKC 36/12 A2985
cycle: 2

Station Type Date Time Source
KMHR TAF 2019/08/26 06:28 UTC NOAA

TAF KMHR 260525Z 2606/2706 VRB04KT P6SM SKC
FM270000 25006KT P6SM SKC
FM270300 21007KT P6SM SKC

Example: see airport list